Time;durP1;ratioP1;P1;durP2;ratioP2;P2;SDS_P1;SDS_P2;PMS_P1;PMS_P2;Temp;Humidity;BMP_temperature;BMP_pressure;BME280_temperature;BME280_humidity;BME280_pressure;Samples;Min_cycle;Max_cycle;Signal;HPM_P1;HPM_P2
2024/04/13 00:04:49;;;;;;;8.33;4.60;;;;;;;15.66;100.00;101465.73;5075379;57;1143071;-77
2024/04/13 00:09:54;;;;;;;6.10;4.10;;;;;;;15.65;100.00;101477.85;5078680;56;1140505;-77
2024/04/13 00:15:00;;;;;;;12.60;4.43;;;;;;;15.59;100.00;101465.86;5086481;56;1140960;-77
2024/04/13 00:20:07;;;;;;;5.62;4.20;;;;;;;15.52;100.00;101465.16;5187003;55;1152174;-78
2024/04/13 00:25:14;;;;;;;8.93;4.22;;;;;;;15.44;100.00;101459.11;5116888;55;1140421;-77
2024/04/13 00:30:20;;;;;;;5.53;3.90;;;;;;;15.37;100.00;101453.95;5079598;55;1140528;-79
2024/04/13 00:35:26;;;;;;;8.00;3.40;;;;;;;15.26;100.00;101447.34;5014912;57;1140943;-78
2024/04/13 00:40:31;;;;;;;6.47;3.40;;;;;;;15.16;100.00;101446.38;5078991;56;1140799;-77
2024/04/13 00:45:43;;;;;;;5.45;3.47;;;;;;;15.07;100.00;101445.33;5079773;55;1140832;-77
2024/04/13 00:50:54;;;;;;;8.00;4.07;;;;;;;15.02;100.00;101451.02;5154555;55;1140637;-77
2024/04/13 00:56:00;;;;;;;8.83;3.83;;;;;;;14.95;100.00;101447.17;5164503;55;1140687;-79
2024/04/13 01:01:10;;;;;;;7.47;3.67;;;;;;;14.91;100.00;101444.88;5077294;55;1140983;-79
2024/04/13 01:06:15;;;;;;;6.78;4.00;;;;;;;14.83;100.00;101441.48;5084996;55;1141312;-78
2024/04/13 01:11:21;;;;;;;6.87;3.83;;;;;;;14.77;100.00;101448.17;5100501;55;1141029;-78
2024/04/13 01:16:32;;;;;;;10.73;4.80;;;;;;;14.70;100.00;101437.64;5163990;55;1140719;-77
2024/04/13 01:21:39;;;;;;;10.33;3.80;;;;;;;14.64;100.00;101440.81;5118539;56;1142748;-77
2024/04/13 01:26:46;;;;;;;4.87;4.40;;;;;;;14.59;100.00;101432.81;5039793;57;1142683;-78
2024/04/13 01:31:52;;;;;;;6.83;4.50;;;;;;;14.55;100.00;101433.54;5078049;56;1140593;-77
2024/04/13 01:36:57;;;;;;;14.33;4.40;;;;;;;14.51;100.00;101437.44;5078694;56;1140974;-79
2024/04/13 01:42:03;;;;;;;11.37;4.57;;;;;;;14.44;100.00;101440.20;5098392;57;1143058;-78
2024/04/13 01:47:08;;;;;;;8.63;4.90;;;;;;;14.40;100.00;101438.75;5078199;56;1142615;-78
2024/04/13 01:52:14;;;;;;;11.10;4.57;;;;;;;14.30;100.00;101435.09;5164706;55;1140562;-76
2024/04/13 01:57:20;;;;;;;9.63;5.17;;;;;;;14.30;100.00;101435.09;5172078;55;1143220;-78
2024/04/13 02:02:25;;;;;;;9.48;5.70;;;;;;;14.32;100.00;101433.17;5079347;55;1140865;-77
2024/04/13 02:07:33;;;;;;;5.03;4.40;;;;;;;14.30;100.00;101438.61;5085438;56;1140961;-79
2024/04/13 02:12:38;;;;;;;7.45;5.05;;;;;;;14.29;100.00;101436.91;5163737;55;1140948;-78
2024/04/13 02:17:44;;;;;;;8.30;5.30;;;;;;;14.28;100.00;101439.20;5184062;55;1140842;-77
2024/04/13 02:22:49;;;;;;;7.50;5.80;;;;;;;14.25;100.00;101422.14;5105646;56;1140718;-79
2024/04/13 02:27:55;;;;;;;10.77;6.17;;;;;;;14.24;100.00;101424.92;5161701;55;1141068;-77
2024/04/13 02:33:00;;;;;;;10.98;5.70;;;;;;;14.21;100.00;101422.02;5183422;56;1142764;-78
2024/04/13 02:38:06;;;;;;;9.80;6.43;;;;;;;14.19;100.00;101436.43;5163899;55;1142950;-78
2024/04/13 02:43:12;;;;;;;7.17;5.63;;;;;;;14.14;100.00;101440.77;5089764;55;1140628;-78
2024/04/13 02:48:17;;;;;;;8.33;5.07;;;;;;;14.13;100.00;101444.88;5097634;56;1140832;-77
2024/04/13 02:53:23;;;;;;;13.15;5.87;;;;;;;14.11;100.00;101440.16;5078174;56;1140760;-77
2024/04/13 02:58:29;;;;;;;9.17;6.00;;;;;;;14.05;100.00;101437.50;4968712;57;1142568;-78
2024/04/13 03:03:35;;;;;;;10.48;6.22;;;;;;;14.05;100.00;101437.50;5164488;55;1140715;-77
2024/04/13 03:08:41;;;;;;;8.20;6.03;;;;;;;14.01;100.00;101434.71;5184908;56;1143032;-79
2024/04/13 03:13:48;;;;;;;6.67;5.77;;;;;;;13.97;100.00;101438.08;5127637;55;1140868;-78
2024/04/13 03:18:53;;;;;;;9.10;6.77;;;;;;;13.93;100.00;101431.30;5164390;55;1140997;-77
2024/04/13 03:23:59;;;;;;;12.67;6.83;;;;;;;13.89;100.00;101439.66;5185514;55;1140693;-77
2024/04/13 03:29:05;;;;;;;8.83;7.00;;;;;;;13.85;100.00;101437.70;5164686;55;1142696;-77
2024/04/13 03:34:10;;;;;;;11.33;6.80;;;;;;;13.83;100.00;101440.95;5165002;56;1140490;-77
2024/04/13 03:39:16;;;;;;;13.78;6.37;;;;;;;13.79;100.00;101438.64;5184746;56;1142943;-78
2024/04/13 03:44:21;;;;;;;8.25;6.58;;;;;;;13.76;100.00;101438.87;5164964;56;1142948;-78
2024/04/13 03:49:27;;;;;;;10.17;6.20;;;;;;;13.70;100.00;101427.76;5164655;55;1141045;-78
2024/04/13 03:54:33;;;;;;;9.43;5.10;;;;;;;13.68;100.00;101428.83;5164582;55;1142961;-77
2024/04/13 03:59:38;;;;;;;7.00;5.83;;;;;;;13.63;100.00;101437.15;5184710;55;1140751;-78
2024/04/13 04:04:44;;;;;;;7.70;6.13;;;;;;;13.57;100.00;101436.78;5164234;55;1140609;-78
2024/04/13 04:09:50;;;;;;;15.20;6.00;;;;;;;13.48;100.00;101422.84;5128497;55;1140964;-77
2024/04/13 04:14:55;;;;;;;6.93;5.73;;;;;;;13.40;100.00;101418.12;5120598;56;1142969;-78
2024/04/13 04:20:01;;;;;;;12.57;5.73;;;;;;;13.34;100.00;101421.22;5164748;56;1140752;-77
2024/04/13 04:25:08;;;;;;;10.67;5.83;;;;;;;13.33;100.00;101418.20;5164347;55;1142845;-77
2024/04/13 04:30:15;;;;;;;7.53;5.97;;;;;;;13.28;100.00;101412.41;5184707;56;1142890;-78
2024/04/13 04:35:20;;;;;;;11.80;6.70;;;;;;;13.21;100.00;101412.00;5117342;55;1140763;-78
2024/04/13 04:40:28;;;;;;;8.40;5.40;;;;;;;13.21;100.00;101421.30;5078455;57;1143164;-78
2024/04/13 04:45:34;;;;;;;7.90;5.53;;;;;;;13.19;100.00;101401.11;5089649;56;1141010;-79
2024/04/13 04:50:40;;;;;;;8.47;5.90;;;;;;;13.16;100.00;101405.31;5099202;55;1140773;-78
2024/04/13 04:55:45;;;;;;;6.83;6.07;;;;;;;13.10;100.00;101405.77;4977797;57;1140842;-79
2024/04/13 05:00:51;;;;;;;7.50;5.93;;;;;;;13.10;100.00;101407.09;5082394;55;1143821;-78
2024/04/13 05:05:57;;;;;;;6.87;5.60;;;;;;;13.11;100.00;101406.13;5106826;55;1140432;-78
2024/04/13 05:11:03;;;;;;;11.83;6.10;;;;;;;13.15;100.00;101411.59;5134424;56;1141024;-77
2024/04/13 05:16:12;;;;;;;10.27;5.40;;;;;;;13.19;100.00;101429.86;5164339;55;1142755;-78
2024/04/13 05:21:17;;;;;;;10.93;6.43;;;;;;;13.24;100.00;101428.19;5183123;55;1143242;-78
2024/04/13 05:26:23;;;;;;;6.87;5.80;;;;;;;13.27;100.00;101429.30;5152914;55;1143057;-78
2024/04/13 05:31:28;;;;;;;13.67;6.33;;;;;;;13.34;100.00;101429.19;5136257;55;1140878;-79
2024/04/13 05:36:34;;;;;;;10.17;6.07;;;;;;;13.42;100.00;101420.19;5129453;55;1143030;-78
2024/04/13 05:41:40;;;;;;;6.80;6.20;;;;;;;13.60;100.00;101428.55;5184567;55;1142706;-78
2024/04/13 05:46:45;;;;;;;7.30;6.60;;;;;;;13.73;100.00;101425.36;5146172;55;1140705;-78
2024/04/13 05:51:51;;;;;;;7.00;6.40;;;;;;;13.84;100.00;101427.18;4999707;57;1140997;-77
2024/04/13 05:56:57;;;;;;;11.37;6.57;;;;;;;13.85;100.00;101424.41;5175607;55;1141345;-77
2024/04/13 06:02:02;;;;;;;9.13;6.30;;;;;;;13.92;100.00;101427.42;5129727;55;1142853;-78
2024/04/13 06:07:08;;;;;;;9.13;6.20;;;;;;;14.06;100.00;101431.19;5079164;56;1140672;-77
2024/04/13 06:12:13;;;;;;;12.13;7.13;;;;;;;14.13;100.00;101430.25;5099822;56;1140721;-78
2024/04/13 06:17:19;;;;;;;8.53;7.15;;;;;;;14.28;100.00;101429.05;4977831;57;1142900;-77
2024/04/13 06:22:25;;;;;;;8.93;7.20;;;;;;;14.40;100.00;101427.63;5149830;55;1140864;-78
2024/04/13 06:27:31;;;;;;;8.93;6.45;;;;;;;14.56;100.00;101427.25;5099283;55;1140573;-78
2024/04/13 06:32:37;;;;;;;9.73;7.07;;;;;;;14.71;100.00;101424.69;5024717;56;1140854;-78
2024/04/13 06:37:42;;;;;;;10.63;7.33;;;;;;;14.83;100.00;101433.50;5079903;55;1141195;-79
2024/04/13 06:42:48;;;;;;;12.37;8.00;;;;;;;14.94;100.00;101429.50;5098916;55;1142813;-79
2024/04/13 06:47:53;;;;;;;9.57;8.30;;;;;;;14.99;100.00;101431.77;5083447;55;1143198;-78
2024/04/13 06:52:59;;;;;;;13.73;8.57;;;;;;;15.00;100.00;101420.98;5164559;56;1141236;-79
2024/04/13 06:58:05;;;;;;;16.00;9.73;;;;;;;14.96;100.00;101420.05;5159485;56;1142764;-79
2024/04/13 07:03:11;;;;;;;13.47;9.70;;;;;;;15.03;100.00;101419.41;5079633;55;1143199;-79
2024/04/13 07:08:16;;;;;;;18.07;11.10;;;;;;;15.09;100.00;101412.27;5236343;55;1144687;-78
2024/04/13 07:13:24;;;;;;;12.90;9.45;;;;;;;15.18;100.00;101406.64;5273384;54;1144878;-78
2024/04/13 07:18:30;;;;;;;11.48;9.75;;;;;;;15.29;100.00;101405.26;5165439;54;1142827;-78
2024/04/13 07:23:35;;;;;;;13.73;8.93;;;;;;;15.33;100.00;101407.19;5125287;55;1143048;-78
2024/04/13 07:28:42;;;;;;;11.60;9.30;;;;;;;15.49;100.00;101413.78;5024732;56;1142863;-78
2024/04/13 07:33:47;;;;;;;12.17;9.07;;;;;;;15.57;100.00;101414.52;5044700;57;1142582;-81
2024/04/13 07:38:53;;;;;;;17.90;8.60;;;;;;;15.58;100.00;101411.36;5025224;56;1142672;-77
2024/04/13 07:43:59;;;;;;;11.00;8.20;;;;;;;15.59;100.00;101409.87;5026532;56;1142818;-78
2024/04/13 07:49:04;;;;;;;16.17;8.03;;;;;;;15.54;100.00;101403.22;5184750;56;1142786;-78
2024/04/13 07:54:10;;;;;;;11.50;6.93;;;;;;;15.56;100.00;101398.16;5138161;55;1142761;-78
2024/04/13 07:59:15;;;;;;;12.93;7.00;;;;;;;15.51;100.00;101401.66;5124126;55;1142817;-79
2024/04/13 08:04:21;;;;;;;16.02;6.92;;;;;;;15.64;100.00;101409.00;5184845;55;1143001;-77
2024/04/13 08:09:27;;;;;;;12.25;5.95;;;;;;;15.70;100.00;101412.98;5164440;55;1143292;-78
2024/04/13 08:14:32;;;;;;;14.30;6.83;;;;;;;15.91;100.00;101425.80;5164714;55;1143130;-78
2024/04/13 08:19:38;;;;;;;7.82;4.57;;;;;;;16.01;100.00;101427.22;5129450;55;1142898;-78
2024/04/13 08:24:46;;;;;;;10.80;4.90;;;;;;;16.33;100.00;101419.94;5044317;57;1140563;-78
2024/04/13 08:29:51;;;;;;;8.53;4.20;;;;;;;16.46;100.00;101417.88;5078160;54;1142664;-78
2024/04/13 08:34:58;;;;;;;8.27;3.73;;;;;;;16.50;100.00;101411.26;5078216;55;1140683;-78
2024/04/13 08:40:03;;;;;;;9.13;3.23;;;;;;;16.66;100.00;101397.42;5045963;56;1141079;-78
2024/04/13 08:45:12;;;;;;;6.47;3.43;;;;;;;16.91;100.00;101392.08;5074582;56;1140839;-78
2024/04/13 08:50:18;;;;;;;4.03;3.30;;;;;;;17.08;100.00;101402.58;5075457;56;1140443;-78
2024/04/13 08:55:24;;;;;;;7.28;4.10;;;;;;;17.20;97.89;101410.31;5099021;56;1140878;-78
2024/04/13 09:00:32;;;;;;;15.78;4.42;;;;;;;17.12;97.83;101403.47;5145728;56;1138567;-79
2024/04/13 09:05:38;;;;;;;8.17;3.80;;;;;;;17.12;99.00;101405.30;5137268;56;1141070;-78
2024/04/13 09:10:47;;;;;;;6.07;2.60;;;;;;;17.28;98.43;101408.27;5164937;55;1140703;-78
2024/04/13 09:15:52;;;;;;;5.00;2.93;;;;;;;17.42;89.89;101420.36;5169772;55;1138441;-78
2024/04/13 09:21:01;;;;;;;7.77;2.70;;;;;;;17.47;88.37;101421.64;5078594;55;1138455;-77
2024/04/13 09:26:08;;;;;;;15.70;5.30;;;;;;;17.50;86.71;101421.36;5078182;55;1138827;-80
2024/04/13 09:31:19;;;;;;;7.40;2.20;;;;;;;17.61;83.60;101432.40;5020298;57;1140763;-81
2024/04/13 09:36:26;;;;;;;5.07;2.30;;;;;;;17.81;82.16;101411.36;5080095;55;1138548;-79
2024/04/13 09:41:32;;;;;;;9.33;2.20;;;;;;;18.04;81.71;101405.16;5164735;55;1138517;-81
2024/04/13 09:46:38;;;;;;;10.77;3.10;;;;;;;18.29;78.21;101382.25;5140550;56;1138433;-80
2024/04/13 09:51:46;;;;;;;14.70;3.30;;;;;;;18.50;78.21;101379.31;5099377;56;1140718;-79
2024/04/13 09:56:51;;;;;;;8.25;3.33;;;;;;;18.67;76.57;101382.55;5083555;56;1140950;-80
2024/04/13 10:01:57;;;;;;;8.63;3.85;;;;;;;18.70;75.52;101375.56;5164350;55;1138542;-78
2024/04/13 10:07:05;;;;;;;6.30;1.95;;;;;;;18.89;74.29;101377.28;5179263;56;1138567;-80
2024/04/13 10:12:15;;;;;;;8.28;2.22;;;;;;;19.02;72.39;101375.56;5114623;55;1138338;-80
2024/04/13 10:17:21;;;;;;;8.15;2.27;;;;;;;19.14;76.24;101366.28;5164596;55;1138390;-80
2024/04/13 10:22:27;;;;;;;5.78;2.35;;;;;;;19.32;74.06;101367.12;5184805;55;1138560;-80
2024/04/13 10:27:34;;;;;;;9.57;2.30;;;;;;;19.54;73.74;101360.46;5163618;56;1138967;-80
2024/04/13 10:32:44;;;;;;;11.15;2.22;;;;;;;19.63;71.12;101362.19;5163682;55;1138550;-80
2024/04/13 10:37:51;;;;;;;9.63;2.40;;;;;;;19.77;74.60;101357.59;5164327;55;1140613;-79
2024/04/13 10:43:01;;;;;;;5.70;2.25;;;;;;;19.85;70.30;101350.09;5184439;55;1138580;-79
2024/04/13 10:48:08;;;;;;;7.47;2.27;;;;;;;19.91;74.12;101357.00;5164455;55;1139122;-80
2024/04/13 10:53:14;;;;;;;6.70;2.00;;;;;;;20.06;74.85;101339.78;5163976;55;1138655;-79
2024/04/13 10:58:20;;;;;;;4.75;1.80;;;;;;;20.19;73.57;101327.25;5184896;55;1138569;-79
2024/04/13 11:03:27;;;;;;;12.90;1.80;;;;;;;20.36;71.26;101341.97;5164611;55;1138535;-79
2024/04/13 11:08:34;;;;;;;6.47;1.67;;;;;;;20.35;70.73;101324.63;5163978;55;1140749;-80
2024/04/13 11:13:40;;;;;;;3.27;2.03;;;;;;;20.47;67.45;101337.31;5163958;55;1138994;-80
2024/04/13 11:18:45;;;;;;;7.87;2.08;;;;;;;20.46;67.82;101320.35;5184717;55;1138861;-80
2024/04/13 11:23:52;;;;;;;4.28;1.95;;;;;;;20.44;67.98;101321.52;5164656;55;1138403;-79
2024/04/13 11:28:58;;;;;;;5.35;1.80;;;;;;;20.48;70.64;101314.28;5164819;55;1138702;-79
2024/04/13 11:34:04;;;;;;;5.78;2.15;;;;;;;20.56;69.35;101321.03;5184811;55;1138784;-79
2024/04/13 11:39:11;;;;;;;5.87;1.77;;;;;;;20.60;69.99;101317.02;5139650;55;1138571;-79
2024/04/13 11:44:17;;;;;;;5.65;1.70;;;;;;;20.56;71.81;101320.20;5079533;55;1138524;-79
2024/04/13 11:49:23;;;;;;;5.42;1.65;;;;;;;20.40;72.39;101308.06;5100456;55;1138573;-80
2024/04/13 11:54:29;;;;;;;6.83;1.75;;;;;;;20.35;70.84;101303.97;5080187;55;1138680;-80
2024/04/13 11:59:35;;;;;;;6.05;2.10;;;;;;;20.30;73.70;101302.30;5140637;56;1139056;-80
2024/04/13 12:04:41;;;;;;;7.35;2.70;;;;;;;20.33;73.40;101307.32;5174569;55;1138795;-79
2024/04/13 12:09:46;;;;;;;7.97;2.35;;;;;;;20.46;74.24;101301.54;5184310;56;1138852;-79
2024/04/13 12:14:53;;;;;;;6.40;1.60;;;;;;;20.51;74.82;101299.68;5164290;56;1138898;-80
2024/04/13 12:20:00;;;;;;;7.08;1.62;;;;;;;20.63;76.11;101291.63;5164682;56;1138385;-80
2024/04/13 12:25:06;;;;;;;4.17;1.85;;;;;;;20.66;75.13;101284.09;5184656;55;1138927;-80
2024/04/13 12:30:12;;;;;;;2.02;1.15;;;;;;;20.79;72.89;101290.31;5164688;55;1138810;-79
2024/04/13 12:35:19;;;;;;;13.98;1.52;;;;;;;20.77;70.04;101276.73;5164409;56;1138489;-79
2024/04/13 12:40:25;;;;;;;2.32;1.24;;;;;;;20.79;71.81;101284.94;5184671;55;1140947;-80
2024/04/13 12:45:30;;;;;;;5.23;1.70;;;;;;;20.83;67.95;101269.32;5164150;55;1138542;-80
2024/04/13 12:50:36;;;;;;;4.20;1.57;;;;;;;20.92;69.55;101292.03;5164574;56;1139946;-80
2024/04/13 12:55:42;;;;;;;4.62;1.40;;;;;;;20.92;68.64;101292.53;5164742;55;1138565;-79
2024/04/13 13:00:47;;;;;;;3.40;1.25;;;;;;;20.89;71.55;101281.60;5112719;55;1138598;-80
2024/04/13 13:05:56;;;;;;;3.83;1.22;;;;;;;20.94;69.07;101268.98;5077323;57;1138648;-79
2024/04/13 13:11:02;;;;;;;2.70;1.20;;;;;;;20.99;69.86;101261.26;5077740;55;1138630;-79
2024/04/13 13:16:07;;;;;;;4.62;1.55;;;;;;;21.11;68.96;101253.17;5141024;56;1138538;-79
2024/04/13 13:21:13;;;;;;;6.92;1.67;;;;;;;21.18;69.05;101255.53;5164408;55;1138515;-80
2024/04/13 13:26:18;;;;;;;3.50;0.95;;;;;;;21.21;69.74;101243.63;5164570;55;1138537;-79
2024/04/13 13:31:24;;;;;;;4.92;1.62;;;;;;;21.25;65.99;101243.09;5165025;55;1138786;-80
2024/04/13 13:36:29;;;;;;;3.72;1.50;;;;;;;21.28;63.72;101231.16;5079829;55;1138741;-79
2024/04/13 13:41:35;;;;;;;2.22;1.20;;;;;;;21.33;62.33;101220.23;5079852;55;1138872;-79
2024/04/13 13:46:40;;;;;;;4.23;1.10;;;;;;;21.47;61.81;101228.09;5079051;55;1138569;-78
2024/04/13 13:51:46;;;;;;;6.65;1.77;;;;;;;21.51;61.13;101209.25;5116387;55;1138572;-79
2024/04/13 13:56:51;;;;;;;6.28;1.27;;;;;;;21.56;59.93;101212.74;5124502;55;1138428;-79
2024/04/13 14:01:57;;;;;;;3.17;1.40;;;;;;;21.61;60.37;101191.53;5079623;56;1138321;-79
2024/04/13 14:07:03;;;;;;;2.30;1.20;;;;;;;21.65;61.98;101188.33;5099494;56;1138490;-79
2024/04/13 14:12:09;;;;;;;4.17;1.40;;;;;;;21.78;60.33;101185.07;5079526;55;1138450;-79
2024/04/13 14:17:15;;;;;;;1.20;0.98;;;;;;;21.82;60.75;101178.33;5141008;55;1138940;-79
2024/04/13 14:22:22;;;;;;;6.84;1.24;;;;;;;21.60;61.34;101166.98;5202686;56;1138575;-80
2024/04/13 14:48:22;;;;;;;6.70;2.12;;;;;;;21.63;60.16;101151.83;5087277;56;47190;-79
2024/04/13 14:53:28;;;;;;;7.33;1.50;;;;;;;21.53;62.91;101149.36;4921594;57;1134492;-82
2024/04/13 14:58:34;;;;;;;12.90;2.72;;;;;;;21.49;62.93;101145.33;4906926;57;1139028;-80
2024/04/13 15:03:40;;;;;;;3.25;1.70;;;;;;;21.49;64.76;101146.67;5013874;57;1141029;-79
2024/04/13 15:08:46;;;;;;;2.33;1.32;;;;;;;21.41;64.82;101135.92;4910945;57;1138678;-80
2024/04/13 15:13:52;;;;;;;2.34;1.36;;;;;;;21.32;64.41;101128.41;4869362;59;1138930;-80
2024/04/13 15:18:58;;;;;;;1.52;1.37;;;;;;;21.24;64.83;101127.58;4892083;58;1138914;-79
2024/04/13 15:24:04;;;;;;;4.67;1.42;;;;;;;21.21;65.36;101134.17;4870105;58;1138946;-81
2024/04/13 15:29:10;;;;;;;2.77;1.62;;;;;;;21.18;65.48;101135.82;4932345;58;1138867;-79
2024/04/13 15:34:16;;;;;;;3.77;1.40;;;;;;;21.12;66.22;101120.86;4971594;57;1138737;-79
2024/04/13 15:39:21;;;;;;;1.45;1.30;;;;;;;21.10;66.24;101121.03;4871994;58;1138947;-81
2024/04/13 15:44:27;;;;;;;5.08;1.42;;;;;;;21.05;64.14;101114.01;4888175;57;1138617;-80
2024/04/13 15:49:32;;;;;;;1.23;1.10;;;;;;;21.06;65.74;101115.69;4884842;58;1138833;-80
2024/04/13 15:54:38;;;;;;;1.75;1.40;;;;;;;21.07;64.33;101111.98;4860852;59;1138846;-81
2024/04/13 15:59:48;;;;;;;0.95;0.78;;;;;;;20.89;63.12;101089.34;4805953;58;1138737;-79
2024/04/13 16:04:54;;;;;;;3.20;1.70;;;;;;;20.90;63.44;101092.88;4936591;56;1138694;-80
2024/04/13 16:10:00;;;;;;;1.47;1.37;;;;;;;20.83;63.87;101095.90;4879427;58;1139096;-80
2024/04/13 16:15:08;;;;;;;1.67;1.12;;;;;;;20.77;63.95;101085.84;4861169;59;1138914;-79
2024/04/13 16:20:18;;;;;;;2.25;1.35;;;;;;;20.76;64.79;101083.66;4861011;58;1138969;-79
2024/04/13 16:25:21;;;;;;;1.25;1.15;;;;;;;20.73;65.95;101085.84;4895849;58;1139223;-80
2024/04/13 16:30:26;;;;;;;5.47;1.20;;;;;;;20.71;66.99;101073.92;4964484;57;1138814;-79
2024/04/13 16:35:32;;;;;;;2.67;1.47;;;;;;;20.69;66.92;101078.13;4991189;55;1138802;-84
2024/04/13 16:40:38;;;;;;;1.55;1.20;;;;;;;20.68;67.01;101080.47;5028237;56;1138892;-80
2024/04/13 16:45:44;;;;;;;29.02;10.75;;;;;;;20.68;67.25;101072.91;4945485;56;1138663;-80
2024/04/13 16:50:57;;;;;;;38.78;14.87;;;;;;;20.68;67.73;101064.34;4941497;57;1142939;-81
2024/04/13 16:56:03;;;;;;;12.43;5.47;;;;;;;20.68;68.28;101068.88;4942361;57;1142936;-80
2024/04/13 17:01:09;;;;;;;11.05;4.92;;;;;;;20.65;68.51;101055.78;4961373;58;1141076;-79
2024/04/13 17:06:15;;;;;;;6.10;2.60;;;;;;;20.60;68.78;101049.59;4942106;57;1140846;-79
2024/04/13 17:11:21;;;;;;;23.10;11.43;;;;;;;20.52;69.17;101038.84;4973186;56;1138882;-79
2024/04/13 17:16:26;;;;;;;16.42;5.12;;;;;;;20.46;69.80;101031.98;5027375;56;1142993;-82
2024/04/13 17:21:32;;;;;;;21.93;13.67;;;;;;;20.43;69.91;101025.09;5013180;56;1140840;-81
2024/04/13 17:26:37;;;;;;;70.72;31.27;;;;;;;20.34;70.30;101010.79;4949036;57;1142905;-80
2024/04/13 17:31:43;;;;;;;92.82;41.15;;;;;;;20.30;70.94;101024.75;4960178;56;1142805;-82
2024/04/13 17:36:49;;;;;;;162.85;74.50;;;;;;;20.18;71.48;101009.47;4958842;56;1142861;-82
2024/04/13 17:41:54;;;;;;;358.38;201.00;;;;;;;20.08;72.02;101006.13;4948302;57;1145257;-80
2024/04/13 17:47:00;;;;;;;302.18;198.25;;;;;;;19.97;72.53;101005.97;4992090;57;1147189;-80
2024/04/13 17:52:06;;;;;;;185.12;111.70;;;;;;;19.90;73.24;101012.16;4937861;58;1147401;-79
2024/04/13 17:57:11;;;;;;;337.10;158.45;;;;;;;19.81;73.70;101018.55;4927532;57;1147185;-81
2024/04/13 18:02:17;;;;;;;102.20;52.53;;;;;;;19.72;74.34;101010.97;4888054;57;1147124;-79
2024/04/13 18:07:22;;;;;;;60.17;25.95;;;;;;;19.65;74.78;101009.98;5047226;56;1145789;-79
2024/04/13 18:12:28;;;;;;;37.63;18.98;;;;;;;19.51;75.95;101002.08;4911868;57;1142942;-81
2024/04/13 18:17:33;;;;;;;49.05;24.80;;;;;;;19.51;75.95;101002.08;4946740;57;1143130;-79
2024/04/13 18:22:40;;;;;;;52.53;22.52;;;;;;;19.51;77.10;101007.44;5005096;56;1143187;-80
2024/04/13 18:27:46;;;;;;;36.53;20.37;;;;;;;19.47;77.79;101000.69;4869128;56;1142828;-80
2024/04/13 18:32:51;;;;;;;31.05;18.45;;;;;;;19.39;77.72;101003.37;4873967;58;1142852;-80
2024/04/13 18:37:57;;;;;;;52.83;24.65;;;;;;;19.35;78.60;101002.00;4957617;57;1143137;-82
2024/04/13 18:43:03;;;;;;;39.45;21.52;;;;;;;19.27;78.75;101001.97;5028732;57;1142891;-80
2024/04/13 18:48:09;;;;;;;31.77;17.12;;;;;;;19.16;79.46;100998.26;5008280;56;1142955;-80
2024/04/13 18:53:14;;;;;;;520.35;357.27;;;;;;;19.13;80.51;101002.59;5007743;56;1142888;-79
2024/04/13 18:58:21;;;;;;;509.92;292.04;;;;;;;19.02;80.48;101004.24;5044463;56;1146994;-81
2024/04/13 19:03:27;;;;;;;253.65;126.20;;;;;;;18.86;81.02;100999.66;5001595;58;1147247;-81
2024/04/13 19:08:33;;;;;;;630.00;308.50;;;;;;;18.74;81.83;100991.56;5005052;56;1146981;-82
2024/04/13 19:13:38;;;;;;;1549.58;664.90;;;;;;;18.64;82.46;100987.64;4952288;57;1147149;-78
2024/04/13 19:18:44;;;;;;;946.63;450.02;;;;;;;18.56;83.17;100985.75;4865724;56;1149096;-79
2024/04/13 19:23:49;;;;;;;177.78;74.75;;;;;;;18.55;84.41;100977.37;4940476;57;1146824;-82
2024/04/13 19:28:55;;;;;;;110.55;55.17;;;;;;;18.55;84.82;100967.99;4946421;57;1145051;-81
2024/04/13 19:34:00;;;;;;;53.65;29.55;;;;;;;18.55;84.92;100964.47;5023294;57;1144827;-80
2024/04/13 19:39:06;;;;;;;43.13;24.12;;;;;;;18.33;84.64;100957.00;5014726;56;1142818;-81
2024/04/13 19:44:12;;;;;;;50.90;30.47;;;;;;;18.33;84.64;100957.00;5012922;57;1142942;-81
2024/04/13 19:49:17;;;;;;;25.90;17.07;;;;;;;18.19;85.27;100943.17;5011689;57;1142934;-83
2024/04/13 19:54:23;;;;;;;27.50;13.55;;;;;;;18.07;85.66;100947.11;5028262;56;1143032;-82
2024/04/13 19:59:32;;;;;;;22.50;13.28;;;;;;;17.96;86.29;100943.36;5027616;57;1143377;-84
2024/04/13 20:04:37;;;;;;;77.40;34.20;;;;;;;17.89;86.70;100942.29;5016247;56;1142693;-81
2024/04/13 20:09:44;;;;;;;58.48;33.20;;;;;;;17.75;87.43;100938.84;4889012;57;1142717;-82
2024/04/13 20:20:15;;;;;;;;;;;;;;;17.54;88.86;100937.32;4945093;57;1142517;-81
2024/04/13 20:25:21;;;;;;;28.87;15.67;;;;;;;17.47;89.44;100939.41;4986682;57;976223;-81
2024/04/13 20:30:26;;;;;;;18.77;9.87;;;;;;;17.42;90.23;100939.02;4963558;57;1140598;-80
2024/04/13 20:35:32;;;;;;;16.47;8.10;;;;;;;17.36;90.70;100934.30;4913970;57;1140707;-83
2024/04/13 20:40:37;;;;;;;14.10;7.43;;;;;;;17.30;91.17;100929.55;4930680;57;1142148;-82
2024/04/13 20:45:44;;;;;;;8.83;6.27;;;;;;;17.22;91.91;100919.13;4921901;57;1140833;-84
2024/04/13 20:50:50;;;;;;;11.97;6.37;;;;;;;17.13;93.03;100913.84;4875563;58;1138619;-85
2024/04/13 20:55:55;;;;;;;12.70;6.53;;;;;;;17.04;93.46;100910.26;4937665;57;1140630;-81
2024/04/13 21:01:01;;;;;;;14.17;5.43;;;;;;;17.01;94.41;100906.55;4930982;57;1140649;-80
2024/04/13 21:06:12;;;;;;;8.47;5.43;;;;;;;16.95;95.07;100905.83;4912610;58;1141140;-82
2024/04/13 21:11:18;;;;;;;7.77;5.73;;;;;;;16.90;95.49;100899.25;4886776;58;1138761;-83
2024/04/13 21:16:24;;;;;;;12.00;5.77;;;;;;;16.86;95.67;100903.55;4884522;58;1138754;-83
2024/04/13 21:21:29;;;;;;;13.62;4.95;;;;;;;16.80;96.09;100893.45;4867136;58;1140664;-82
2024/04/13 21:26:36;;;;;;;7.73;5.20;;;;;;;16.76;96.38;100885.91;4898668;57;1140636;-80
2024/04/13 21:31:41;;;;;;;11.50;5.75;;;;;;;16.72;96.50;100878.68;5011594;56;1138545;-82
2024/04/13 21:36:48;;;;;;;9.47;5.43;;;;;;;16.72;96.72;100868.48;5014670;56;1140694;-82
2024/04/13 21:41:53;;;;;;;10.87;5.37;;;;;;;16.70;96.79;100867.80;5039993;56;1138519;-82
2024/04/13 21:46:59;;;;;;;7.60;4.47;;;;;;;16.64;97.39;100855.06;5057623;57;1140624;-81
2024/04/13 21:52:05;;;;;;;12.30;5.37;;;;;;;16.63;97.36;100850.22;5098325;56;1138614;-83
2024/04/13 21:57:11;;;;;;;12.37;4.93;;;;;;;16.62;97.63;100847.66;4965482;57;1140673;-83
2024/04/13 22:02:16;;;;;;;7.73;4.63;;;;;;;16.56;98.23;100851.75;4882106;58;1140481;-83
2024/04/13 22:07:22;;;;;;;10.27;4.90;;;;;;;16.51;99.49;100846.01;4940310;58;1138635;-84
2024/04/13 22:12:28;;;;;;;11.43;5.17;;;;;;;16.47;99.50;100844.16;4961406;57;1140978;-79
2024/04/13 22:17:33;;;;;;;10.10;4.65;;;;;;;16.44;99.96;100834.27;4893246;57;1140983;-80
2024/04/13 22:22:40;;;;;;;9.08;4.70;;;;;;;16.43;100.00;100829.42;5006257;57;1140927;-83
2024/04/13 22:27:45;;;;;;;9.40;4.60;;;;;;;16.42;100.00;100825.06;5042533;57;1141227;-80
2024/04/13 22:32:51;;;;;;;10.43;4.83;;;;;;;16.40;100.00;100811.52;5042831;57;1140558;-81
2024/04/13 22:37:56;;;;;;;12.03;4.93;;;;;;;16.38;100.00;100802.32;5042981;57;1142694;-80
2024/04/13 22:43:02;;;;;;;5.50;4.60;;;;;;;16.35;100.00;100797.77;5003432;57;1142965;-81
2024/04/13 22:48:08;;;;;;;8.13;4.70;;;;;;;16.37;100.00;100794.45;4961247;57;1140903;-83
2024/04/13 22:53:13;;;;;;;8.60;5.80;;;;;;;16.36;100.00;100776.77;4961044;58;1140934;-81
2024/04/13 22:58:19;;;;;;;8.70;6.10;;;;;;;16.34;100.00;100766.75;4980993;58;1140943;-82
2024/04/13 23:03:25;;;;;;;11.53;6.05;;;;;;;16.33;100.00;100752.56;4953445;58;1141011;-83
2024/04/13 23:08:31;;;;;;;19.50;8.10;;;;;;;16.34;100.00;100741.39;4915520;58;1143338;-80
2024/04/13 23:13:36;;;;;;;9.53;6.15;;;;;;;16.37;100.00;100746.41;4954852;57;1143008;-80
2024/04/13 23:18:42;;;;;;;8.83;5.20;;;;;;;16.32;100.00;100736.20;5011112;57;1140604;-81
2024/04/13 23:23:48;;;;;;;9.17;4.80;;;;;;;16.28;100.00;100729.48;5010073;57;1141026;-82